Airfield :
LOGIN :

Register | Disclaimer

   EN    FR    IT 

 










Legend :    VFR   Marginal VFR   IFR   Intensive IFR   Very Intensive IFR
Visi :
Ceiling :
>= 8 km
>= 3000ft
5 to 8 km
1000 to 3000 ft
1500m to 5 km
500 to 1000 ft
800 to 1500m
200 to 500 ft
< 800m
< 200 ft
Symbols :   Thunderstorms  Fog  Heavy snow  Heavy precipitations  Wind > 20 kt
SIGMETs :     Misc.  Thunderstorms  Icing  Turbulence  Mountain Waves  Volcanic Ashes






- Airport Elevation : 127 ft
- IATA code : JTR


LGSR - Santorini

CURRENT METAR :
  • 090720Z 33010KT CAVOK 28/21 Q1008

EXPIRED METARs :
  • 090650Z 28007KT CAVOK 28/21 Q1008
  • 090620Z 29009KT CAVOK 28/21 Q1008
  • 090550Z 35011KT CAVOK 27/20 Q1008
  • 090520Z 33012KT CAVOK 27/20 Q1008
  • 090450Z 35008KT CAVOK 27/20 Q1007

TAF TAF LGSR
Valid from the 09 at 06:00 until the 10 at 06:00 UTC


090500Z 0906/1006 33013KT 9999 FEW020



MET'MAP, your aeronautical weather chart ! - Copyright ORBIFLY December 2007 - Disclaimer

ORBIFLY MET'MAP TEAM :

Programming & Development : Alexandra Zaïnal
Original concept : Baudouin d'Aumeries
Technical & hardware support : Manuel Goepfert
Assistance : Marc-Olivier Méhu




SOURCES & CREDITS :

   NOAA